Time;durP1;ratioP1;P1;durP2;ratioP2;P2;SDS_P1;SDS_P2;PMS_P1;PMS_P2;Temp;Humidity;BMP_temperature;BMP_pressure;BME280_temperature;BME280_humidity;BME280_pressure;Samples;Min_cycle;Max_cycle;Signal;HPM_P1;HPM_P2
2022/03/25 00:00:49;;;;;;;13.90;11.87;;;6.30;92.30;;;;;;5052471;28;20275;-74
2022/03/25 00:03:15;;;;;;;17.13;11.73;;;6.30;92.80;;;;;;5068862;28;20211;-74
2022/03/25 00:05:40;;;;;;;11.83;10.10;;;6.30;92.70;;;;;;5055038;28;20211;-74
2022/03/25 00:08:06;;;;;;;13.43;10.63;;;6.20;92.90;;;;;;5065298;28;20186;-76
2022/03/25 00:10:33;;;;;;;15.27;11.00;;;6.20;93.20;;;;;;5060959;28;20740;-74
2022/03/25 00:12:59;;;;;;;12.70;10.87;;;6.10;93.70;;;;;;5061812;28;20179;-73
2022/03/25 00:15:24;;;;;;;16.20;10.73;;;6.10;94.10;;;;;;5061548;28;20264;-73
2022/03/25 00:17:50;;;;;;;11.37;10.27;;;6.10;94.60;;;;;;5065424;28;20237;-74
2022/03/25 00:20:15;;;;;;;15.20;11.30;;;6.00;94.80;;;;;;5058963;28;20184;-74
2022/03/25 00:22:41;;;;;;;15.67;11.17;;;6.10;95.00;;;;;;5062647;28;20206;-73
2022/03/25 00:25:08;;;;;;;12.50;10.73;;;6.10;95.20;;;;;;5067065;28;20202;-75
2022/03/25 00:27:34;;;;;;;13.37;11.30;;;6.10;95.60;;;;;;5061244;28;20183;-74
2022/03/25 00:30:00;;;;;;;12.50;10.37;;;6.00;96.20;;;;;;5057386;28;20188;-74
2022/03/25 00:32:25;;;;;;;14.23;11.40;;;6.00;96.80;;;;;;5062875;28;20251;-74
2022/03/25 00:34:51;;;;;;;14.33;11.27;;;6.00;97.60;;;;;;5066926;28;20908;-74
2022/03/25 00:37:17;;;;;;;14.03;11.20;;;6.00;98.00;;;;;;5065842;28;20261;-74
2022/03/25 00:39:44;;;;;;;12.77;10.57;;;6.10;98.30;;;;;;5065787;28;20337;-74
2022/03/25 00:42:11;;;;;;;13.27;11.57;;;5.90;99.10;;;;;;5060097;28;20179;-74
2022/03/25 00:44:38;;;;;;;12.13;10.57;;;5.80;99.80;;;;;;5061779;28;20209;-73
2022/03/25 00:47:04;;;;;;;13.37;10.17;;;5.80;99.90;;;;;;5065888;28;20545;-73
2022/03/25 00:49:30;;;;;;;16.00;11.00;;;5.80;99.90;;;;;;5064673;28;20258;-75
2022/03/25 00:51:56;;;;;;;12.90;10.80;;;5.70;99.90;;;;;;5060511;28;20302;-74
2022/03/25 00:54:22;;;;;;;13.17;9.97;;;5.60;99.90;;;;;;5066397;28;20223;-74
2022/03/25 00:56:48;;;;;;;13.87;10.53;;;5.50;99.90;;;;;;5063626;28;20183;-74
2022/03/25 00:59:14;;;;;;;13.10;10.40;;;5.60;99.90;;;;;;5058633;28;20189;-73
2022/03/25 01:01:41;;;;;;;12.23;10.17;;;5.70;99.90;;;;;;5068653;28;20253;-73
2022/03/25 01:04:08;;;;;;;12.07;10.27;;;5.70;99.90;;;;;;5065639;28;20188;-73
2022/03/25 01:06:34;;;;;;;13.53;11.43;;;5.70;99.90;;;;;;5062684;28;20187;-73
2022/03/25 01:09:01;;;;;;;15.03;11.73;;;5.50;99.90;;;;;;5063151;28;20244;-72
2022/03/25 01:11:27;;;;;;;13.47;10.70;;;5.40;99.90;;;;;;5070414;28;20203;-73
2022/03/25 01:13:52;;;;;;;14.40;11.10;;;5.30;99.90;;;;;;5067951;28;20182;-73
2022/03/25 01:16:18;;;;;;;12.40;11.10;;;5.40;99.90;;;;;;5063975;28;20191;-73
2022/03/25 01:18:44;;;;;;;14.40;11.03;;;5.40;99.90;;;;;;5062675;28;20183;-74
2022/03/25 01:21:10;;;;;;;14.03;12.53;;;5.50;99.90;;;;;;5052572;28;20180;-73
2022/03/25 01:23:36;;;;;;;16.57;12.17;;;5.40;99.90;;;;;;5054592;28;20191;-74
2022/03/25 01:26:03;;;;;;;16.77;12.67;;;5.30;99.90;;;;;;5051335;28;20230;-74
2022/03/25 01:28:34;;;;;;;15.43;12.30;;;5.10;99.90;;;;;;5052859;28;20179;-75
2022/03/25 01:31:03;;;;;;;14.80;12.23;;;5.10;99.90;;;;;;5051166;28;20219;-75
2022/03/25 01:33:30;;;;;;;15.20;12.37;;;5.00;99.90;;;;;;5054100;28;20176;-75
2022/03/25 01:35:56;;;;;;;19.47;13.30;;;5.00;99.90;;;;;;5054120;28;20214;-74
2022/03/25 01:38:22;;;;;;;17.77;13.47;;;5.00;99.90;;;;;;5062018;28;20179;-74
2022/03/25 01:40:48;;;;;;;17.03;13.53;;;5.00;99.90;;;;;;5060832;28;20259;-73
2022/03/25 01:43:14;;;;;;;16.20;13.03;;;5.00;99.90;;;;;;5070347;28;20661;-74
2022/03/25 01:45:40;;;;;;;16.53;13.57;;;5.00;99.90;;;;;;5065920;28;20200;-75
2022/03/25 01:48:11;;;;;;;18.03;13.90;;;5.00;99.90;;;;;;5066454;28;20651;-75
2022/03/25 01:50:39;;;;;;;16.63;13.67;;;4.90;99.90;;;;;;5059554;28;20198;-75
2022/03/25 01:53:13;;;;;;;18.20;14.33;;;4.80;99.90;;;;;;5057712;28;20179;-75
2022/03/25 01:55:43;;;;;;;16.03;13.47;;;4.80;99.90;;;;;;5061796;28;20205;-75
2022/03/25 01:58:12;;;;;;;19.30;14.83;;;4.80;99.90;;;;;;5057686;28;20183;-75
2022/03/25 02:00:37;;;;;;;15.73;13.07;;;4.80;99.90;;;;;;5060750;28;20262;-75
2022/03/25 02:03:04;;;;;;;18.80;14.87;;;4.80;99.90;;;;;;5063758;28;20619;-75
2022/03/25 02:05:30;;;;;;;18.07;13.73;;;4.70;99.90;;;;;;5066810;28;20210;-75
2022/03/25 02:07:55;;;;;;;18.17;13.77;;;4.70;99.90;;;;;;5062041;28;20266;-75
2022/03/25 02:10:22;;;;;;;17.17;14.17;;;4.70;99.90;;;;;;5067072;28;20270;-74
2022/03/25 02:12:47;;;;;;;17.77;14.17;;;4.70;99.90;;;;;;5064780;28;20183;-75
2022/03/25 02:15:13;;;;;;;17.00;14.43;;;4.60;99.90;;;;;;5059233;28;20199;-74
2022/03/25 02:17:39;;;;;;;16.53;13.60;;;4.50;99.90;;;;;;5066686;28;20283;-74
2022/03/25 02:20:08;;;;;;;17.60;14.37;;;4.60;99.90;;;;;;5060024;28;20223;-74
2022/03/25 02:22:38;;;;;;;18.33;14.60;;;4.50;99.90;;;;;;5069688;28;20289;-74
2022/03/25 02:25:08;;;;;;;20.97;16.03;;;4.50;99.90;;;;;;5058210;28;20210;-74
2022/03/25 02:27:36;;;;;;;16.13;13.83;;;4.40;99.90;;;;;;5068619;28;20183;-74
2022/03/25 02:30:06;;;;;;;16.87;14.40;;;4.40;99.90;;;;;;5068702;28;20180;-74
2022/03/25 02:32:32;;;;;;;20.80;15.90;;;4.40;99.90;;;;;;5063656;28;20203;-74
2022/03/25 02:34:57;;;;;;;21.17;15.20;;;4.40;99.90;;;;;;5059675;28;20210;-74
2022/03/25 02:37:25;;;;;;;20.30;14.77;;;4.40;99.90;;;;;;5066391;28;20179;-74
2022/03/25 02:39:54;;;;;;;21.23;15.80;;;4.40;99.90;;;;;;5062297;28;20168;-74
2022/03/25 02:42:20;;;;;;;21.60;14.50;;;4.40;99.90;;;;;;5073907;28;20183;-75
2022/03/25 02:44:45;;;;;;;20.67;15.07;;;4.30;99.90;;;;;;5054163;28;20211;-74
2022/03/25 02:47:11;;;;;;;19.93;14.43;;;4.30;99.90;;;;;;5069687;28;20191;-73
2022/03/25 02:49:37;;;;;;;19.43;14.67;;;4.30;99.90;;;;;;5060732;28;20184;-74
2022/03/25 02:52:02;;;;;;;20.97;15.33;;;4.30;99.90;;;;;;5067919;28;20208;-74
2022/03/25 02:54:28;;;;;;;21.90;15.23;;;4.20;99.90;;;;;;5073324;28;20206;-74
2022/03/25 02:56:53;;;;;;;21.90;15.37;;;4.10;99.90;;;;;;5079162;28;20649;-74
2022/03/25 02:59:19;;;;;;;17.63;14.27;;;4.10;99.90;;;;;;5076829;28;20171;-74
2022/03/25 03:01:45;;;;;;;20.67;14.40;;;4.10;99.90;;;;;;5067303;28;20210;-74
2022/03/25 03:04:11;;;;;;;17.83;14.87;;;4.10;99.90;;;;;;5067561;28;20683;-75
2022/03/25 03:06:36;;;;;;;18.17;15.93;;;4.10;99.90;;;;;;5062077;28;20175;-75
2022/03/25 03:09:02;;;;;;;18.43;15.33;;;4.10;99.90;;;;;;5071817;28;20195;-75
2022/03/25 03:11:28;;;;;;;21.67;15.80;;;4.10;99.90;;;;;;5058406;28;20302;-75
2022/03/25 03:13:54;;;;;;;20.73;15.43;;;4.00;99.90;;;;;;5061851;28;20641;-75
2022/03/25 03:16:19;;;;;;;21.33;15.90;;;4.00;99.90;;;;;;5069862;28;20266;-74
2022/03/25 03:18:45;;;;;;;20.13;15.93;;;4.00;99.90;;;;;;5062892;28;20249;-74
2022/03/25 03:21:11;;;;;;;19.47;14.97;;;4.00;99.90;;;;;;5066809;28;20215;-74
2022/03/25 03:23:37;;;;;;;19.97;15.17;;;3.90;99.90;;;;;;5061443;28;20191;-74
2022/03/25 03:26:03;;;;;;;20.83;14.80;;;3.90;99.90;;;;;;5063278;28;20230;-74
2022/03/25 03:28:28;;;;;;;18.33;14.20;;;3.80;99.90;;;;;;5063601;28;20183;-73
2022/03/25 03:30:55;;;;;;;23.50;16.07;;;3.80;99.90;;;;;;5062042;28;20199;-74
2022/03/25 03:33:21;;;;;;;18.03;13.67;;;3.80;99.90;;;;;;5056867;28;20187;-74
2022/03/25 03:35:47;;;;;;;19.00;15.27;;;3.70;99.90;;;;;;5065551;28;20203;-74
2022/03/25 03:38:13;;;;;;;18.63;14.80;;;3.70;99.90;;;;;;5060584;28;20402;-74
2022/03/25 03:40:39;;;;;;;19.50;14.87;;;3.70;99.90;;;;;;5069160;28;20183;-73
2022/03/25 03:43:05;;;;;;;21.73;15.57;;;3.70;99.90;;;;;;5078170;28;20214;-74
2022/03/25 03:45:32;;;;;;;22.07;15.90;;;3.70;99.90;;;;;;5065102;28;20207;-74
2022/03/25 03:47:58;;;;;;;21.13;15.93;;;3.70;99.90;;;;;;5055904;28;20187;-74
2022/03/25 03:50:24;;;;;;;20.90;16.10;;;3.60;99.90;;;;;;5065062;28;20187;-74
2022/03/25 03:52:50;;;;;;;21.13;16.60;;;3.60;99.90;;;;;;5066958;28;20254;-74
2022/03/25 03:55:15;;;;;;;19.87;15.53;;;3.60;99.90;;;;;;5070743;28;20279;-74
2022/03/25 03:57:42;;;;;;;20.13;16.17;;;3.50;99.90;;;;;;5057606;28;20279;-74
2022/03/25 04:00:13;;;;;;;20.90;16.07;;;3.50;99.90;;;;;;5072318;28;20182;-74
2022/03/25 04:02:39;;;;;;;21.93;16.70;;;3.50;99.90;;;;;;5063353;28;20223;-75
2022/03/25 04:05:06;;;;;;;20.43;16.40;;;3.50;99.90;;;;;;5063587;28;20196;-74
2022/03/25 04:07:31;;;;;;;22.30;16.97;;;3.50;99.90;;;;;;5059531;28;20641;-74
2022/03/25 04:09:57;;;;;;;22.30;16.07;;;3.50;99.90;;;;;;5061800;28;20186;-74
2022/03/25 04:12:23;;;;;;;22.33;15.97;;;3.50;99.90;;;;;;5067111;28;20732;-74
2022/03/25 04:14:49;;;;;;;20.80;15.67;;;3.50;99.90;;;;;;5062928;28;20270;-75
2022/03/25 04:17:14;;;;;;;22.57;15.73;;;3.50;99.90;;;;;;5060867;28;20221;-74
2022/03/25 04:19:40;;;;;;;21.17;16.13;;;3.50;99.90;;;;;;5063184;28;20615;-75
2022/03/25 04:22:06;;;;;;;22.73;16.10;;;3.60;99.90;;;;;;5064230;28;20182;-74
2022/03/25 04:24:32;;;;;;;22.17;16.70;;;3.50;99.90;;;;;;5068126;28;20639;-74
2022/03/25 04:26:58;;;;;;;20.03;16.57;;;3.50;99.90;;;;;;5058186;28;20195;-74
2022/03/25 04:29:24;;;;;;;21.03;16.27;;;3.40;99.90;;;;;;5073993;28;20224;-75
2022/03/25 04:31:49;;;;;;;19.13;15.70;;;3.40;99.90;;;;;;5081740;28;20203;-74
2022/03/25 04:34:15;;;;;;;19.70;15.83;;;3.30;99.90;;;;;;5061287;28;20693;-74
2022/03/25 04:36:40;;;;;;;22.50;16.90;;;3.20;99.90;;;;;;5060705;28;20180;-74
2022/03/25 04:39:06;;;;;;;22.43;16.53;;;3.20;99.90;;;;;;5055354;28;20191;-75
2022/03/25 04:41:31;;;;;;;22.27;16.83;;;3.20;99.90;;;;;;5056603;28;20607;-75
2022/03/25 04:43:57;;;;;;;23.83;16.33;;;3.20;99.90;;;;;;5054671;28;20266;-75
2022/03/25 04:46:23;;;;;;;19.53;15.87;;;3.20;99.90;;;;;;5054817;28;20189;-75
2022/03/25 04:48:48;;;;;;;19.90;15.80;;;3.20;99.90;;;;;;5061746;28;20557;-75
2022/03/25 04:51:14;;;;;;;21.67;16.63;;;3.20;99.90;;;;;;5055473;28;20211;-75
2022/03/25 04:53:40;;;;;;;18.43;16.10;;;3.10;99.90;;;;;;5057283;28;20178;-75
2022/03/25 04:56:06;;;;;;;21.00;16.53;;;3.10;99.90;;;;;;5059596;28;20658;-75
2022/03/25 04:58:31;;;;;;;18.43;15.57;;;3.10;99.90;;;;;;5054582;28;20549;-74
2022/03/25 05:00:57;;;;;;;20.47;15.60;;;3.10;99.90;;;;;;5056990;28;20192;-75
2022/03/25 05:03:23;;;;;;;22.50;16.93;;;3.10;99.90;;;;;;5057734;28;20226;-75
2022/03/25 05:05:49;;;;;;;22.17;15.33;;;3.10;99.90;;;;;;5057926;28;20202;-75
2022/03/25 05:08:15;;;;;;;23.30;16.40;;;3.10;99.90;;;;;;5052244;28;20177;-75
2022/03/25 05:10:41;;;;;;;20.53;16.63;;;3.20;99.90;;;;;;5051164;28;20779;-74
2022/03/25 05:13:08;;;;;;;21.83;16.90;;;3.20;99.90;;;;;;5051787;28;20175;-75
2022/03/25 05:15:34;;;;;;;21.00;16.03;;;3.10;99.90;;;;;;5053186;28;20584;-73
2022/03/25 05:18:00;;;;;;;24.37;17.50;;;3.00;99.90;;;;;;5053986;28;20245;-74
2022/03/25 05:20:26;;;;;;;23.23;16.60;;;3.00;99.90;;;;;;5055400;28;20180;-70
2022/03/25 05:22:52;;;;;;;21.17;16.17;;;3.10;99.90;;;;;;5052935;28;20233;-71
2022/03/25 05:25:19;;;;;;;20.10;16.33;;;3.20;99.90;;;;;;5054791;28;20293;-74
2022/03/25 05:27:50;;;;;;;24.43;17.57;;;3.20;99.90;;;;;;5060816;28;20334;-74
2022/03/25 05:30:24;;;;;;;26.90;17.10;;;3.20;99.90;;;;;;5056958;28;20188;-75
2022/03/25 05:32:50;;;;;;;20.70;16.90;;;3.20;99.90;;;;;;5057683;28;20844;-75
2022/03/25 05:35:16;;;;;;;20.07;16.77;;;3.10;99.90;;;;;;5053306;28;20195;-75
2022/03/25 05:37:42;;;;;;;22.03;16.17;;;3.10;99.90;;;;;;5059665;28;20192;-76
2022/03/25 05:40:10;;;;;;;24.20;17.37;;;3.20;99.90;;;;;;5063500;28;20221;-76
2022/03/25 05:42:36;;;;;;;23.53;17.63;;;3.40;99.90;;;;;;5061426;28;20176;-74
2022/03/25 05:45:04;;;;;;;25.03;17.70;;;3.40;99.90;;;;;;5068672;28;20278;-72
2022/03/25 05:47:30;;;;;;;21.33;17.13;;;3.40;99.90;;;;;;5062836;28;20188;-72
2022/03/25 05:49:56;;;;;;;23.67;16.23;;;3.40;99.90;;;;;;5057014;28;20226;-74
2022/03/25 05:52:21;;;;;;;23.80;18.30;;;3.40;99.90;;;;;;5053646;28;20207;-75
2022/03/25 05:54:47;;;;;;;23.57;17.90;;;3.50;99.90;;;;;;5058185;28;20218;-75
2022/03/25 05:57:12;;;;;;;21.97;17.97;;;3.60;99.90;;;;;;5055837;28;20219;-75
2022/03/25 05:59:38;;;;;;;23.57;19.13;;;3.70;99.90;;;;;;5056757;28;20202;-75
2022/03/25 06:02:04;;;;;;;25.53;19.13;;;3.70;99.90;;;;;;5053001;28;20184;-73
2022/03/25 06:04:29;;;;;;;24.60;18.60;;;3.80;99.90;;;;;;5055603;28;20215;-73
2022/03/25 06:06:55;;;;;;;23.40;17.83;;;3.80;99.90;;;;;;5052998;28;20219;-73
2022/03/25 06:09:20;;;;;;;22.93;18.37;;;3.80;99.90;;;;;;5055409;28;20276;-76
2022/03/25 06:11:46;;;;;;;23.00;17.93;;;3.90;99.90;;;;;;5059862;28;20258;-76
2022/03/25 06:14:12;;;;;;;24.23;18.33;;;4.00;99.90;;;;;;5057872;28;20218;-76
2022/03/25 06:16:39;;;;;;;24.80;17.93;;;4.10;99.90;;;;;;5056380;28;20210;-76
2022/03/25 06:19:05;;;;;;;27.47;18.80;;;4.20;99.90;;;;;;5060026;28;20176;-76
2022/03/25 06:21:30;;;;;;;24.33;18.80;;;4.40;99.90;;;;;;5056477;28;20233;-76
2022/03/25 06:23:56;;;;;;;27.03;18.80;;;4.40;99.90;;;;;;5060452;28;20843;-76
2022/03/25 06:26:22;;;;;;;23.27;19.23;;;4.50;99.90;;;;;;5055601;28;20201;-75
2022/03/25 06:28:47;;;;;;;24.50;18.50;;;4.60;99.90;;;;;;5055062;28;20198;-76
2022/03/25 06:31:13;;;;;;;27.57;19.10;;;4.80;99.90;;;;;;5056503;28;20211;-76
2022/03/25 06:33:39;;;;;;;23.27;17.70;;;4.90;99.90;;;;;;5059518;28;20187;-75
2022/03/25 06:36:07;;;;;;;24.30;19.73;;;4.90;99.90;;;;;;5060288;28;20206;-76
2022/03/25 06:38:33;;;;;;;30.90;20.53;;;5.10;99.90;;;;;;5068178;28;20178;-74
2022/03/25 06:41:01;;;;;;;30.07;19.53;;;5.20;99.90;;;;;;5067992;28;20662;-76
2022/03/25 06:43:27;;;;;;;23.90;18.70;;;5.30;99.90;;;;;;5064729;28;20519;-76
2022/03/25 06:45:53;;;;;;;24.67;19.27;;;5.40;99.90;;;;;;5060269;28;20279;-78
2022/03/25 06:48:19;;;;;;;27.50;20.23;;;5.50;99.90;;;;;;5064028;28;20621;-77
2022/03/25 06:50:45;;;;;;;29.03;20.30;;;5.50;99.90;;;;;;5068459;28;20213;-76
2022/03/25 06:53:11;;;;;;;27.33;20.43;;;5.60;99.90;;;;;;5067369;28;20240;-76
2022/03/25 06:55:37;;;;;;;24.63;19.63;;;5.70;99.90;;;;;;5065923;28;20223;-75
2022/03/25 06:58:03;;;;;;;26.20;18.73;;;5.80;99.90;;;;;;5064410;28;20274;-79
2022/03/25 07:00:29;;;;;;;26.27;19.50;;;5.90;99.90;;;;;;5060259;28;20179;-75
2022/03/25 07:02:55;;;;;;;22.70;18.90;;;6.00;99.90;;;;;;5068237;28;20729;-75
2022/03/25 07:05:21;;;;;;;24.50;18.97;;;6.10;99.90;;;;;;5068409;28;20203;-74
2022/03/25 07:07:47;;;;;;;30.00;20.00;;;6.20;99.90;;;;;;5065304;28;20175;-74
2022/03/25 07:10:15;;;;;;;26.07;19.23;;;6.30;99.90;;;;;;5063596;28;20188;-74
2022/03/25 07:12:43;;;;;;;24.53;19.40;;;6.40;99.90;;;;;;5070755;28;20289;-73
2022/03/25 07:15:09;;;;;;;26.43;20.30;;;6.50;99.90;;;;;;5059187;28;20199;-75
2022/03/25 07:17:37;;;;;;;25.73;20.20;;;6.60;99.90;;;;;;5059300;28;20179;-74
2022/03/25 07:20:06;;;;;;;23.27;18.00;;;6.70;99.90;;;;;;5058523;28;20175;-73
2022/03/25 07:22:33;;;;;;;25.77;18.27;;;6.80;99.90;;;;;;5066475;28;20227;-74
2022/03/25 07:24:58;;;;;;;24.90;18.97;;;6.90;99.90;;;;;;5067264;28;20286;-74
2022/03/25 07:27:24;;;;;;;24.53;18.47;;;6.90;99.90;;;;;;5062480;28;20309;-74
2022/03/25 07:29:49;;;;;;;25.77;18.93;;;6.90;99.90;;;;;;5066631;28;20760;-74
2022/03/25 07:32:15;;;;;;;26.93;20.07;;;7.00;99.90;;;;;;5068535;28;20218;-74
2022/03/25 07:34:41;;;;;;;26.23;20.83;;;7.10;99.90;;;;;;5061666;28;20203;-73
2022/03/25 07:37:06;;;;;;;25.00;18.37;;;7.20;99.90;;;;;;5066210;28;20175;-74
2022/03/25 07:39:34;;;;;;;22.43;18.17;;;7.30;99.90;;;;;;5069095;28;20641;-73
2022/03/25 07:41:59;;;;;;;24.27;18.27;;;7.40;99.90;;;;;;5062904;28;20203;-74
2022/03/25 07:44:25;;;;;;;25.83;17.87;;;7.60;99.90;;;;;;5066622;28;20662;-73
2022/03/25 07:46:51;;;;;;;23.33;18.33;;;7.70;99.90;;;;;;5065395;28;20179;-74
2022/03/25 07:49:16;;;;;;;24.77;19.40;;;7.90;99.90;;;;;;5062992;28;20202;-73
2022/03/25 07:51:42;;;;;;;24.90;20.00;;;8.00;99.90;;;;;;5066212;28;20229;-73
2022/03/25 07:54:08;;;;;;;21.47;17.77;;;8.10;99.90;;;;;;5060989;28;20180;-73
2022/03/25 07:56:34;;;;;;;23.52;18.85;;;8.30;99.90;;;;;;5065918;28;20183;-71
2022/03/25 07:58:59;;;;;;;27.80;19.10;;;8.40;99.90;;;;;;5061599;28;20183;-71
2022/03/25 08:01:26;;;;;;;25.60;19.55;;;8.60;99.90;;;;;;5057959;28;20187;-71
2022/03/25 08:03:52;;;;;;;26.65;19.75;;;8.60;99.90;;;;;;5063411;28;20187;-74
2022/03/25 08:06:18;;;;;;;24.17;18.98;;;8.80;99.90;;;;;;5059389;28;20199;-72
2022/03/25 08:08:47;;;;;;;24.58;19.80;;;8.90;99.90;;;;;;5066005;28;20184;-72
2022/03/25 08:11:13;;;;;;;25.42;20.20;;;9.00;99.90;;;;;;5064362;28;20199;-72
2022/03/25 08:13:38;;;;;;;27.50;19.85;;;9.10;99.90;;;;;;5068433;28;20266;-72
2022/03/25 08:16:04;;;;;;;22.80;18.88;;;9.20;99.90;;;;;;5055899;28;20291;-72
2022/03/25 08:18:30;;;;;;;23.33;18.17;;;9.30;99.90;;;;;;5057206;28;20180;-72
2022/03/25 08:20:57;;;;;;;24.92;17.95;;;9.50;99.90;;;;;;5060297;28;20191;-71
2022/03/25 08:28:54;;;;;;;20.52;18.33;;;10.10;99.90;;;;;;5064500;28;20193;-73
2022/03/25 08:31:20;;;;;;;22.40;17.85;;;10.30;99.90;;;;;;5068850;28;20246;-72
2022/03/25 08:33:45;;;;;;;24.20;18.60;;;10.50;99.90;;;;;;5061950;28;20204;-72
2022/03/25 08:36:11;;;;;;;22.85;17.70;;;10.70;99.80;;;;;;5062295;28;20202;-71
2022/03/25 08:38:37;;;;;;;24.23;19.40;;;11.00;99.50;;;;;;5063057;28;20167;-72
2022/03/25 08:41:04;;;;;;;22.95;19.00;;;11.10;98.10;;;;;;5062984;28;20681;-71
2022/03/25 08:43:30;;;;;;;26.40;20.42;;;11.30;96.50;;;;;;5058618;28;20270;-71
2022/03/25 08:45:56;;;;;;;22.75;18.92;;;11.50;93.50;;;;;;5060854;28;20209;-71
2022/03/25 08:48:23;;;;;;;24.75;19.27;;;11.70;93.60;;;;;;5063384;28;20187;-72
2022/03/25 08:50:49;;;;;;;25.50;20.17;;;12.00;92.60;;;;;;5064754;28;20199;-71
2022/03/25 08:53:16;;;;;;;29.92;20.40;;;12.20;92.40;;;;;;5065490;28;20731;-71
2022/03/25 08:55:41;;;;;;;26.90;18.85;;;12.50;91.00;;;;;;5066170;28;20196;-72
2022/03/25 08:58:07;;;;;;;28.65;19.92;;;12.80;90.80;;;;;;5061983;28;20179;-72
2022/03/25 09:00:33;;;;;;;26.70;19.00;;;13.30;88.70;;;;;;5058424;28;20186;-72
2022/03/25 09:02:58;;;;;;;24.08;18.55;;;14.80;78.00;;;;;;5065412;28;20183;-72
2022/03/25 09:05:24;;;;;;;24.80;18.90;;;17.10;67.90;;;;;;5059174;28;20258;-71
2022/03/25 09:07:50;;;;;;;24.02;19.50;;;19.60;59.50;;;;;;5064256;28;20280;-71
2022/03/25 09:10:16;;;;;;;26.05;19.25;;;21.70;51.80;;;;;;5062016;28;20175;-71
2022/03/25 09:12:44;;;;;;;28.02;19.15;;;23.40;46.20;;;;;;5062269;28;20252;-72
2022/03/25 09:15:12;;;;;;;24.60;18.95;;;24.60;44.70;;;;;;5068173;28;20256;-72
2022/03/25 09:17:39;;;;;;;20.75;18.15;;;25.60;42.00;;;;;;5066067;28;20175;-73
2022/03/25 09:20:06;;;;;;;24.15;18.48;;;26.60;40.30;;;;;;5066421;28;20176;-72
2022/03/25 09:22:32;;;;;;;20.67;18.48;;;27.50;38.10;;;;;;5061272;28;20267;-71
2022/03/25 09:24:58;;;;;;;21.38;18.65;;;28.20;36.50;;;;;;5059600;28;20221;-71
2022/03/25 09:27:24;;;;;;;20.42;17.33;;;29.00;34.50;;;;;;5064753;28;20186;-72
2022/03/25 09:29:50;;;;;;;19.00;17.13;;;29.20;33.90;;;;;;5062149;28;20248;-71
2022/03/25 09:32:16;;;;;;;21.35;18.00;;;29.80;33.20;;;;;;5065499;28;20682;-71
2022/03/25 09:37:26;;;;;;;22.05;16.35;;;30.40;33.10;;;;;;5058830;28;20185;-73
2022/03/25 09:39:52;;;;;;;21.70;17.10;;;31.40;32.20;;;;;;5061333;28;20740;-77
2022/03/25 09:42:19;;;;;;;18.38;16.58;;;31.90;31.70;;;;;;5051662;28;20211;-71
2022/03/25 09:44:46;;;;;;;19.10;17.05;;;32.60;31.30;;;;;;5059565;28;20211;-71
2022/03/25 09:47:17;;;;;;;19.40;17.33;;;32.80;30.30;;;;;;5061550;28;20266;-70
2022/03/25 09:49:43;;;;;;;20.88;17.52;;;33.10;29.80;;;;;;5062021;28;20176;-71
2022/03/25 09:52:09;;;;;;;19.48;17.48;;;33.40;29.90;;;;;;5051961;28;20278;-71
2022/03/25 09:54:35;;;;;;;20.00;16.73;;;33.70;29.80;;;;;;5058200;28;20196;-71
2022/03/25 09:57:02;;;;;;;21.40;19.17;;;33.80;29.40;;;;;;5062324;28;20733;-70
2022/03/25 09:59:27;;;;;;;20.35;18.13;;;33.70;29.40;;;;;;5061110;28;20176;-70
2022/03/25 10:01:53;;;;;;;20.40;17.98;;;32.80;29.80;;;;;;5053344;28;20184;-70
2022/03/25 10:04:36;;;;;;;19.50;17.50;;;33.10;30.00;;;;;;5056571;28;20675;-70
2022/03/25 10:07:13;;;;;;;20.77;18.55;;;33.60;29.50;;;;;;5066472;28;20186;-71
2022/03/25 10:09:39;;;;;;;24.48;19.42;;;34.30;29.30;;;;;;5071383;28;20256;-71
2022/03/25 10:12:38;;;;;;;20.42;18.45;;;34.30;28.80;;;;;;5057973;28;20654;-73
2022/03/25 10:15:22;;;;;;;20.27;18.23;;;33.60;29.20;;;;;;5040264;28;20620;-74
2022/03/25 10:17:51;;;;;;;20.95;18.73;;;33.90;28.80;;;;;;5082228;28;20180;-73
2022/03/25 10:20:19;;;;;;;20.48;18.40;;;33.90;28.50;;;;;;5071438;28;20258;-73
2022/03/25 10:23:04;;;;;;;21.25;19.30;;;33.20;29.20;;;;;;5069813;28;20175;-73
2022/03/25 10:25:41;;;;;;;20.90;18.83;;;33.10;29.10;;;;;;5060397;28;20682;-74
2022/03/25 10:28:34;;;;;;;19.70;17.85;;;32.50;29.40;;;;;;5061964;28;20214;-74
2022/03/25 10:31:06;;;;;;;19.77;17.70;;;33.20;29.70;;;;;;5060838;28;20305;-73
2022/03/25 10:33:34;;;;;;;21.00;17.98;;;33.70;29.20;;;;;;5066746;28;20549;-73
2022/03/25 10:36:11;;;;;;;22.05;19.38;;;34.40;28.40;;;;;;5065299;28;20212;-73
2022/03/25 10:38:49;;;;;;;22.73;18.20;;;35.40;28.60;;;;;;5064879;28;20183;-73
2022/03/25 10:41:18;;;;;;;20.27;18.27;;;35.30;28.50;;;;;;5062526;28;20703;-73
2022/03/25 10:44:03;;;;;;;21.98;19.02;;;35.50;28.30;;;;;;5066590;28;20721;-73
2022/03/25 10:46:32;;;;;;;20.85;18.73;;;35.60;28.10;;;;;;5071114;28;20189;-73
2022/03/25 10:48:58;;;;;;;18.90;17.02;;;35.10;27.90;;;;;;5061158;28;20207;-72
2022/03/25 10:51:24;;;;;;;21.40;18.20;;;35.30;27.80;;;;;;5066920;28;20568;-73
2022/03/25 10:54:12;;;;;;;21.65;19.27;;;35.30;26.90;;;;;;5061666;28;20186;-73
2022/03/25 10:56:51;;;;;;;20.23;18.27;;;34.10;27.10;;;;;;5069080;28;20174;-72
2022/03/25 10:59:26;;;;;;;20.55;17.45;;;34.60;28.50;;;;;;5070305;28;20272;-73
2022/03/25 11:01:54;;;;;;;21.50;19.20;;;35.40;28.10;;;;;;5059546;28;20172;-70
2022/03/25 11:04:20;;;;;;;20.90;18.23;;;36.00;27.60;;;;;;5059702;28;20286;-71
2022/03/25 11:06:47;;;;;;;20.27;17.80;;;35.70;27.30;;;;;;5067306;28;20183;-70
2022/03/25 11:09:15;;;;;;;18.50;16.85;;;35.20;27.10;;;;;;5067076;28;20184;-69
2022/03/25 11:11:42;;;;;;;19.38;17.48;;;35.40;27.40;;;;;;5065724;28;20213;-69
2022/03/25 11:14:09;;;;;;;19.08;17.10;;;35.30;26.80;;;;;;5060923;28;20273;-69
2022/03/25 11:16:38;;;;;;;18.42;16.63;;;35.40;26.80;;;;;;5068167;28;20171;-70
2022/03/25 11:19:05;;;;;;;20.55;18.45;;;35.10;27.60;;;;;;5061588;28;20671;-70
2022/03/25 11:21:33;;;;;;;19.10;17.40;;;35.20;27.20;;;;;;5060937;28;20190;-70
2022/03/25 11:24:03;;;;;;;17.77;16.13;;;35.70;26.50;;;;;;5060786;28;20179;-70
2022/03/25 11:26:30;;;;;;;19.08;17.23;;;36.60;26.50;;;;;;5065985;28;20547;-69
2022/03/25 11:29:00;;;;;;;19.08;17.30;;;36.10;25.90;;;;;;5062902;28;20641;-68
2022/03/25 11:31:26;;;;;;;20.70;18.73;;;36.50;25.90;;;;;;5059424;28;20213;-68
2022/03/25 11:34:09;;;;;;;20.25;18.15;;;35.90;26.00;;;;;;5068482;28;20255;-68
2022/03/25 11:36:40;;;;;;;19.90;17.75;;;35.90;26.00;;;;;;5068570;28;20202;-71
2022/03/25 11:39:21;;;;;;;19.65;17.80;;;35.80;26.30;;;;;;5060279;28;20183;-69
2022/03/25 11:41:47;;;;;;;19.50;17.48;;;36.30;26.60;;;;;;5065891;28;20178;-72
2022/03/25 11:44:20;;;;;;;18.33;16.55;;;37.80;26.20;;;;;;5069423;28;20183;-72
2022/03/25 11:46:58;;;;;;;18.75;17.02;;;37.60;25.00;;;;;;5061753;28;20182;-72
2022/03/25 11:49:28;;;;;;;19.90;17.77;;;37.40;26.40;;;;;;5068555;28;20556;-70
2022/03/25 11:51:54;;;;;;;19.58;17.80;;;37.90;26.20;;;;;;5071740;28;20186;-73
2022/03/25 11:54:40;;;;;;;20.70;18.80;;;37.60;25.90;;;;;;5062626;28;20568;-70
2022/03/25 11:57:21;;;;;;;20.45;18.30;;;37.00;26.50;;;;;;5060215;28;20182;-70
2022/03/25 11:59:59;;;;;;;21.58;19.15;;;35.60;25.80;;;;;;5067605;28;20266;-70
2022/03/25 12:02:33;;;;;;;19.15;17.20;;;35.40;26.50;;;;;;5064264;28;20181;-70
2022/03/25 12:05:00;;;;;;;26.20;18.30;;;35.30;27.60;;;;;;5058449;28;20220;-70
2022/03/25 12:07:26;;;;;;;20.23;18.15;;;36.10;27.20;;;;;;5062652;28;20210;-70
2022/03/25 12:09:52;;;;;;;19.95;17.88;;;36.50;26.60;;;;;;5062044;28;20248;-73
2022/03/25 12:12:18;;;;;;;20.15;18.27;;;36.60;26.10;;;;;;5069032;28;20661;-71
2022/03/25 12:15:11;;;;;;;21.30;19.20;;;37.30;26.30;;;;;;5069877;28;20218;-68
2022/03/25 12:17:38;;;;;;;20.35;18.30;;;37.60;25.70;;;;;;5061303;28;20225;-70
2022/03/25 12:20:05;;;;;;;19.38;17.48;;;37.00;26.00;;;;;;5059835;28;20171;-68
2022/03/25 12:22:33;;;;;;;20.45;18.45;;;36.80;26.40;;;;;;5062953;28;20179;-69
2022/03/25 12:25:05;;;;;;;21.02;18.92;;;37.70;25.70;;;;;;5069429;28;20325;-70
2022/03/25 12:27:31;;;;;;;20.15;18.05;;;37.70;25.70;;;;;;5061664;28;20191;-69
2022/03/25 12:29:57;;;;;;;19.70;17.48;;;37.60;26.10;;;;;;5076751;28;21139;-70
2022/03/25 12:32:25;;;;;;;20.38;18.48;;;37.80;25.60;;;;;;5064641;28;20686;-69
2022/03/25 12:34:54;;;;;;;21.02;19.02;;;37.90;25.60;;;;;;5061296;28;20194;-70
2022/03/25 12:37:43;;;;;;;20.10;18.10;;;37.80;25.80;;;;;;5064988;28;20649;-70
2022/03/25 12:40:10;;;;;;;19.92;18.13;;;37.40;25.70;;;;;;5067093;28;20210;-69
2022/03/25 12:42:36;;;;;;;19.65;17.95;;;36.70;26.40;;;;;;5065547;28;20610;-69